Time;durP1;ratioP1;P1;durP2;ratioP2;P2;SDS_P1;SDS_P2;PMS_P1;PMS_P2;Temp;Humidity;BMP_temperature;BMP_pressure;BME280_temperature;BME280_humidity;BME280_pressure;Samples;Min_cycle;Max_cycle;Signal;HPM_P1;HPM_P2
2023/03/20 00:02:25;;;;;;;42.00;23.30;;;;;;;2.86;90.80;101434.30;109333;1247;62056;-73
2023/03/20 00:04:54;;;;;;;44.20;23.30;;;;;;;2.85;91.19;101427.96;109387;1245;57750;-72
2023/03/20 00:07:23;;;;;;;43.20;22.90;;;;;;;2.83;91.05;101426.48;109408;1244;63069;-73
2023/03/20 00:09:53;;;;;;;42.90;21.40;;;;;;;2.75;91.40;101426.35;109343;1246;60947;-74
2023/03/20 00:12:27;;;;;;;43.60;22.70;;;;;;;2.75;91.71;101421.21;109386;1244;59104;-72
2023/03/20 00:14:55;;;;;;;43.90;21.50;;;;;;;2.70;91.83;101417.57;109389;1244;73143;-73
2023/03/20 00:17:24;;;;;;;44.10;23.90;;;;;;;2.69;92.07;101420.18;109384;1246;57653;-73
2023/03/20 00:19:53;;;;;;;46.20;23.80;;;;;;;2.71;92.01;101417.36;109396;1244;57725;-73
2023/03/20 00:22:22;;;;;;;43.90;24.30;;;;;;;2.71;91.95;101415.48;109385;1247;71871;-72
2023/03/20 00:24:50;;;;;;;43.80;23.10;;;;;;;2.68;92.11;101416.42;109450;1246;72700;-73
2023/03/20 00:27:19;;;;;;;42.70;22.30;;;;;;;2.64;92.09;101412.92;109447;1244;60378;-75
2023/03/20 00:29:48;;;;;;;43.30;23.70;;;;;;;2.67;92.31;101413.02;109473;1245;62462;-76
2023/03/20 00:32:17;;;;;;;45.70;22.80;;;;;;;2.63;91.95;101409.52;109410;1247;57098;-77
2023/03/20 00:34:46;;;;;;;43.20;23.00;;;;;;;2.57;92.16;101406.41;109388;1246;57960;-76
2023/03/20 00:37:15;;;;;;;39.60;22.30;;;;;;;2.51;92.61;101407.79;109350;1248;72175;-76
2023/03/20 00:39:44;;;;;;;44.40;23.90;;;;;;;2.61;92.24;101406.66;109357;1246;71984;-77
2023/03/20 00:42:24;;;;;;;44.40;23.60;;;;;;;2.47;92.27;101407.20;109350;1246;69013;-76
2023/03/20 00:44:58;;;;;;;47.10;24.60;;;;;;;2.34;92.75;101404.98;109242;1246;62761;-77
2023/03/20 00:47:29;;;;;;;45.30;24.10;;;;;;;2.32;93.55;101401.09;109267;1249;60324;-77
2023/03/20 00:49:58;;;;;;;47.20;24.50;;;;;;;2.39;93.29;101394.36;109332;1246;60398;-76
2023/03/20 00:52:27;;;;;;;42.50;24.20;;;;;;;2.28;93.01;101392.25;109253;1246;74175;-77
2023/03/20 00:54:56;;;;;;;49.20;24.30;;;;;;;2.40;93.38;101393.65;109371;1247;72212;-76
2023/03/20 00:57:31;;;;;;;43.40;23.90;;;;;;;2.46;92.85;101395.55;109402;1247;70463;-80
2023/03/20 01:00:07;;;;;;;45.00;23.20;;;;;;;2.40;92.91;101400.34;109359;1246;73441;-79
2023/03/20 01:02:36;;;;;;;49.40;23.80;;;;;;;2.14;93.18;101401.04;109232;1249;60557;-78
2023/03/20 01:05:05;;;;;;;45.40;23.50;;;;;;;2.13;93.90;101397.48;109428;1246;61006;-78
2023/03/20 01:07:34;;;;;;;45.80;23.40;;;;;;;2.04;93.76;101393.75;109342;1246;72087;-77
2023/03/20 01:10:05;;;;;;;44.10;22.70;;;;;;;1.88;94.48;101403.63;109407;1246;70275;-77
2023/03/20 01:12:35;;;;;;;41.50;22.50;;;;;;;1.78;95.38;101399.23;109415;1246;70514;-77
2023/03/20 01:15:21;;;;;;;44.80;22.70;;;;;;;1.81;95.96;101395.70;109379;1246;73441;-76
2023/03/20 01:17:51;;;;;;;44.90;24.10;;;;;;;1.86;95.35;101389.42;109225;1248;60480;-77
2023/03/20 01:20:28;;;;;;;43.90;23.60;;;;;;;1.95;95.31;101392.27;109119;1246;59688;-79
2023/03/20 01:22:56;;;;;;;46.90;25.00;;;;;;;1.91;95.49;101395.98;109192;1246;64738;-79
2023/03/20 01:25:25;;;;;;;43.70;22.70;;;;;;;1.99;95.65;101394.41;109288;1246;69957;-80
2023/03/20 01:27:56;;;;;;;46.00;24.50;;;;;;;2.11;94.91;101395.27;109126;1246;68715;-78
2023/03/20 01:30:32;;;;;;;46.30;24.10;;;;;;;2.08;94.95;101393.30;109219;1246;63412;-80
2023/03/20 01:33:13;;;;;;;43.10;22.40;;;;;;;2.02;94.83;101390.20;109176;1246;59629;-80
2023/03/20 01:35:43;;;;;;;50.30;25.20;;;;;;;2.05;94.97;101389.95;109243;1245;60005;-74
2023/03/20 01:38:24;;;;;;;43.00;22.40;;;;;;;1.90;95.07;101395.30;109241;1246;73520;-79
2023/03/20 01:41:16;;;;;;;46.20;23.20;;;;;;;1.91;95.75;101392.90;109087;1246;72654;-78
2023/03/20 01:43:45;;;;;;;42.80;20.80;;;;;;;1.98;94.28;101391.86;109190;1246;60989;-79
2023/03/20 01:46:23;;;;;;;43.30;22.10;;;;;;;1.93;92.73;101395.08;109253;1246;73035;-77
2023/03/20 01:48:56;;;;;;;44.60;22.90;;;;;;;1.83;92.23;101391.88;109276;1248;57714;-78
2023/03/20 01:51:28;;;;;;;45.10;22.20;;;;;;;1.78;93.97;101389.77;109280;1247;58889;-79
2023/03/20 01:54:08;;;;;;;44.70;23.50;;;;;;;1.80;94.08;101386.98;109117;1246;62028;-78
2023/03/20 01:56:53;;;;;;;43.00;21.30;;;;;;;1.77;93.13;101385.33;109327;1246;72172;-76
2023/03/20 01:59:36;;;;;;;42.20;22.80;;;;;;;1.71;92.67;101388.24;109187;1250;59685;-76
2023/03/20 02:02:08;;;;;;;41.90;22.70;;;;;;;1.58;93.23;101386.50;109248;1244;73872;-77
2023/03/20 02:04:42;;;;;;;41.80;22.10;;;;;;;1.45;93.09;101381.83;109109;1248;60480;-77
2023/03/20 02:07:19;;;;;;;49.10;23.10;;;;;;;1.34;92.65;101380.38;109225;1244;59664;-76
2023/03/20 02:10:10;;;;;;;48.90;23.50;;;;;;;1.36;94.06;101375.54;109353;1244;74011;-77
2023/03/20 02:13:05;;;;;;;43.00;21.80;;;;;;;1.45;93.49;101379.08;109344;1248;61252;-76
2023/03/20 02:16:03;;;;;;;47.30;23.00;;;;;;;1.66;93.91;101383.55;109249;1246;70495;-77
2023/03/20 02:19:57;;;;;;;46.90;23.40;;;;;;;1.50;91.78;101392.54;109343;1244;72377;-77
2023/03/20 02:22:38;;;;;;;41.80;20.70;;;;;;;1.25;92.40;101389.16;109207;1248;61995;-76
2023/03/20 02:25:47;;;;;;;37.40;20.30;;;;;;;1.08;93.28;101392.46;109347;1244;61737;-76
2023/03/20 02:29:07;;;;;;;40.30;21.60;;;;;;;1.06;93.76;101385.99;109198;1244;73228;-75
2023/03/20 02:32:14;;;;;;;43.40;21.20;;;;;;;1.05;93.25;101387.55;109064;1246;71180;-77
2023/03/20 02:35:20;;;;;;;42.30;21.30;;;;;;;1.07;94.46;101385.44;109138;1244;67904;-77
2023/03/20 02:38:39;;;;;;;38.10;20.00;;;;;;;1.06;94.81;101383.24;109039;1247;71957;-75
2023/03/20 02:41:17;;;;;;;38.60;19.40;;;;;;;1.07;93.70;101383.05;108966;1244;59703;-76
2023/03/20 02:44:07;;;;;;;39.70;19.80;;;;;;;1.20;94.58;101379.17;109148;1245;60514;-76
2023/03/20 02:46:35;;;;;;;41.00;20.10;;;;;;;1.29;92.93;101372.08;109149;1244;73334;-75
2023/03/20 02:49:22;;;;;;;42.50;21.20;;;;;;;1.28;92.60;101371.94;109167;1245;71753;-77
2023/03/20 02:52:26;;;;;;;40.40;21.80;;;;;;;1.25;92.69;101366.70;109048;1249;69330;-78
2023/03/20 02:55:04;;;;;;;;;;;;;;;1.45;92.40;101366.20;109209;1246;73896;-73
2023/03/20 02:58:13;;;;;;;41.20;21.40;;;;;;;1.47;92.34;101361.70;109096;1247;61712;-71
2023/03/20 03:01:05;;;;;;;42.20;20.50;;;;;;;1.47;92.60;101358.78;109044;1245;60705;-78
2023/03/20 03:03:54;;;;;;;44.60;22.60;;;;;;;1.37;95.11;101349.92;109158;1245;72383;-75
2023/03/20 03:06:39;;;;;;;39.50;21.30;;;;;;;1.40;96.74;101346.78;109111;1244;72582;-74
2023/03/20 03:09:24;;;;;;;38.30;20.80;;;;;;;1.48;97.53;101351.88;109220;1244;69640;-75
2023/03/20 03:12:01;;;;;;;37.60;20.30;;;;;;;1.70;96.91;101346.17;109082;1248;74235;-75
2023/03/20 03:14:47;;;;;;;39.70;21.50;;;;;;;1.77;96.40;101346.17;109137;1247;57718;-74
2023/03/20 03:17:21;;;;;;;38.10;20.90;;;;;;;1.76;95.99;101349.97;109219;1248;57869;-75
2023/03/20 03:19:54;;;;;;;40.80;20.60;;;;;;;1.75;96.49;101348.64;109235;1244;73600;-75
2023/03/20 03:22:24;;;;;;;42.60;20.30;;;;;;;1.66;96.45;101353.16;109223;1245;73173;-75
2023/03/20 03:24:54;;;;;;;56.10;21.80;;;;;;;1.63;97.00;101352.05;109288;1244;60431;-75
2023/03/20 03:27:35;;;;;;;43.00;21.60;;;;;;;1.67;97.19;101344.91;109194;1245;73021;-76
2023/03/20 03:30:15;;;;;;;40.40;20.80;;;;;;;1.62;97.00;101343.83;109272;1248;61792;-75
2023/03/20 03:32:49;;;;;;;38.90;20.60;;;;;;;1.55;97.37;101342.95;109257;1244;57642;-76
2023/03/20 03:35:20;;;;;;;37.80;19.50;;;;;;;1.57;97.29;101343.09;109131;1244;73447;-74
2023/03/20 03:38:29;;;;;;;35.90;18.30;;;;;;;1.52;97.71;101342.52;109102;1244;71845;-75
2023/03/20 03:41:06;;;;;;;38.70;19.30;;;;;;;1.54;97.66;101345.90;109304;1244;70946;-80
2023/03/20 03:44:13;;;;;;;41.40;21.20;;;;;;;1.51;97.61;101355.61;109368;1247;72366;-82
2023/03/20 03:46:53;;;;;;;41.60;21.00;;;;;;;1.40;97.82;101352.77;109121;1247;61381;-82
2023/03/20 03:49:28;;;;;;;42.70;19.90;;;;;;;1.34;98.02;101346.23;109148;1244;61297;-77
2023/03/20 03:52:08;;;;;;;41.30;19.60;;;;;;;1.32;98.11;101343.36;109157;1247;71407;-76
2023/03/20 03:54:46;;;;;;;37.80;20.80;;;;;;;1.37;97.68;101343.42;109206;1244;72105;-76
2023/03/20 03:58:21;;;;;;;44.30;20.30;;;;;;;1.38;98.47;101337.56;109324;1244;69729;-78
2023/03/20 04:00:53;;;;;;;38.40;20.40;;;;;;;1.59;98.82;101341.13;109176;1249;73647;-78
2023/03/20 04:03:28;;;;;;;37.70;20.30;;;;;;;1.65;98.02;101336.02;109345;1247;57137;-77
2023/03/20 04:05:59;;;;;;;36.40;20.10;;;;;;;1.76;97.69;101341.73;109344;1245;57781;-77
2023/03/20 04:08:28;;;;;;;37.10;19.30;;;;;;;1.92;97.56;101352.83;109395;1244;72739;-78
2023/03/20 04:10:57;;;;;;;34.20;18.20;;;;;;;2.07;95.82;101354.33;109411;1244;72032;-79
2023/03/20 04:13:26;;;;;;;37.40;19.50;;;;;;;2.02;93.86;101359.27;109337;1247;59568;-79
2023/03/20 04:15:55;;;;;;;40.60;20.40;;;;;;;1.97;93.24;101367.30;109157;1249;63288;-78
2023/03/20 04:18:26;;;;;;;41.40;20.80;;;;;;;1.89;93.40;101366.65;109266;1248;58819;-77
2023/03/20 04:20:55;;;;;;;40.30;21.40;;;;;;;1.86;94.27;101365.00;109241;1249;59689;-78
2023/03/20 04:23:24;;;;;;;37.80;20.50;;;;;;;2.04;94.27;101366.59;109350;1247;63004;-75
2023/03/20 04:25:53;;;;;;;39.00;20.20;;;;;;;2.13;94.01;101365.86;109351;1248;69528;-78
2023/03/20 04:28:22;;;;;;;38.50;19.60;;;;;;;2.27;94.03;101371.30;109382;1247;59253;-77
2023/03/20 04:31:11;;;;;;;38.30;20.60;;;;;;;2.35;94.87;101374.36;109423;1244;74411;-78
2023/03/20 04:33:55;;;;;;;40.80;19.80;;;;;;;2.39;94.82;101374.41;109368;1248;58070;-78
2023/03/20 04:36:59;;;;;;;35.80;18.90;;;;;;;2.56;94.96;101370.48;109315;1248;57231;-77
2023/03/20 04:39:41;;;;;;;40.00;20.30;;;;;;;2.71;94.95;101367.14;109270;1251;62193;-77
2023/03/20 04:42:10;;;;;;;39.50;19.20;;;;;;;2.84;95.18;101372.09;109393;1244;72264;-79
2023/03/20 04:44:39;;;;;;;36.00;19.10;;;;;;;3.01;94.49;101369.84;109470;1246;60560;-80
2023/03/20 04:47:08;;;;;;;38.00;17.30;;;;;;;3.10;93.76;101373.91;109381;1247;63353;-77
2023/03/20 04:49:40;;;;;;;33.70;18.50;;;;;;;3.13;93.51;101370.86;109429;1248;57692;-75
2023/03/20 04:52:09;;;;;;;36.00;18.40;;;;;;;3.07;93.75;101378.11;109511;1245;57259;-78
2023/03/20 04:54:41;;;;;;;34.00;18.10;;;;;;;3.11;93.89;101384.20;109328;1247;62268;-78
2023/03/20 04:57:11;;;;;;;35.00;18.30;;;;;;;3.12;93.99;101389.33;109489;1245;60902;-75
2023/03/20 04:59:40;;;;;;;34.40;18.60;;;;;;;3.21;94.01;101391.96;109409;1244;69796;-77
2023/03/20 05:02:13;;;;;;;35.30;17.20;;;;;;;3.24;93.75;101389.48;109453;1244;73399;-82
2023/03/20 05:04:42;;;;;;;34.30;16.90;;;;;;;3.30;93.83;101391.52;109319;1248;61872;-83
2023/03/20 05:07:13;;;;;;;31.40;17.30;;;;;;;3.34;93.43;101388.11;109321;1248;57720;-82
2023/03/20 05:10:23;;;;;;;36.30;18.70;;;;;;;3.47;93.32;101385.14;109096;1251;62250;-86
2023/03/20 05:13:03;;;;;;;41.80;19.80;;;;;;;3.53;93.06;101386.48;109333;1249;61784;-78
2023/03/20 05:16:00;;;;;;;40.50;19.00;;;;;;;3.56;93.36;101382.25;109330;1244;69726;-80
2023/03/20 05:18:44;;;;;;;33.70;17.80;;;;;;;3.58;93.09;101381.67;109248;1244;74368;-84
2023/03/20 05:21:13;;;;;;;39.60;18.10;;;;;;;3.64;93.11;101385.44;109288;1248;62141;-83
2023/03/20 05:24:01;;;;;;;37.00;17.10;;;;;;;3.69;93.31;101386.48;109244;1249;59819;-82
2023/03/20 05:26:35;;;;;;;32.10;18.00;;;;;;;3.81;92.92;101388.85;109340;1244;72720;-83
2023/03/20 05:29:04;;;;;;;30.20;16.60;;;;;;;3.86;92.78;101390.03;109420;1245;61262;-77
2023/03/20 05:31:52;;;;;;;33.10;17.00;;;;;;;3.99;91.82;101390.79;109455;1244;69691;-81
2023/03/20 05:34:39;;;;;;;29.00;17.50;;;;;;;4.00;92.25;101392.34;109397;1245;73378;-81
2023/03/20 05:37:17;;;;;;;30.40;16.20;;;;;;;4.01;91.85;101391.60;109661;1245;57068;-81
2023/03/20 05:40:15;;;;;;;28.90;16.00;;;;;;;3.95;92.12;101396.98;109567;1247;57242;-81
2023/03/20 05:43:04;;;;;;;33.50;17.40;;;;;;;3.95;92.53;101399.39;109271;1244;62233;-84
2023/03/20 05:46:23;;;;;;;35.70;17.30;;;;;;;4.01;92.96;101398.83;109251;1244;72394;-85
2023/03/20 05:49:32;;;;;;;34.40;16.00;;;;;;;4.08;92.03;101400.67;109141;1244;71577;-81
2023/03/20 05:52:20;;;;;;;29.20;16.60;;;;;;;4.09;91.89;101400.45;109085;1244;73702;-83
2023/03/20 05:55:07;;;;;;;32.30;18.00;;;;;;;4.30;91.16;101403.86;108912;1244;375058;-82
2023/03/20 05:57:53;;;;;;;33.10;17.10;;;;;;;4.37;91.06;101398.79;109259;1244;57220;-85
2023/03/20 06:00:41;;;;;;;34.90;17.60;;;;;;;4.33;91.17;101396.36;109309;1244;62664;-85
2023/03/20 06:03:32;;;;;;;29.60;17.40;;;;;;;4.44;90.82;101400.27;109347;1244;62259;-86
2023/03/20 06:06:06;;;;;;;37.60;21.00;;;;;;;4.45;90.48;101400.07;109275;1244;70549;-83
2023/03/20 06:08:36;;;;;;;46.50;20.00;;;;;;;4.39;91.69;101398.20;109332;1244;74061;-83
2023/03/20 06:11:06;;;;;;;37.00;18.60;;;;;;;4.67;90.48;101399.80;109328;1246;61832;-82
2023/03/20 06:13:36;;;;;;;34.20;18.40;;;;;;;4.75;89.37;101397.73;109389;1245;58127;-82
2023/03/20 06:16:06;;;;;;;31.10;17.40;;;;;;;4.79;89.25;101398.46;109314;1244;73570;-82
2023/03/20 06:18:37;;;;;;;32.60;17.90;;;;;;;4.89;88.77;101391.52;109336;1244;72699;-82
2023/03/20 06:21:11;;;;;;;37.50;19.40;;;;;;;4.73;89.07;101395.23;109337;1244;60822;-84
2023/03/20 06:23:40;;;;;;;40.90;19.50;;;;;;;4.74;89.61;101399.00;109259;1245;63541;-83
2023/03/20 06:26:11;;;;;;;30.70;17.40;;;;;;;4.77;89.59;101394.40;109426;1245;57709;-83
2023/03/20 06:28:55;;;;;;;36.40;19.10;;;;;;;4.73;89.76;101396.45;109435;1244;57685;-82
2023/03/20 06:31:26;;;;;;;37.10;19.90;;;;;;;4.76;89.76;101400.80;109441;1244;63034;-84
2023/03/20 06:33:56;;;;;;;32.10;17.80;;;;;;;4.94;89.82;101402.88;109284;1244;61688;-83
2023/03/20 06:36:25;;;;;;;30.80;17.20;;;;;;;5.02;89.01;101407.63;109189;1244;60420;-81
2023/03/20 06:38:59;;;;;;;32.70;17.50;;;;;;;5.19;88.41;101401.95;109241;1244;63328;-84
2023/03/20 06:41:28;;;;;;;35.10;19.20;;;;;;;5.33;87.59;101401.02;109252;1245;57716;-86
2023/03/20 06:44:05;;;;;;;30.10;16.20;;;;;;;5.44;86.90;101402.34;109208;1244;57804;-86
2023/03/20 06:46:53;;;;;;;35.00;16.50;;;;;;;5.47;86.45;101405.30;109379;1243;73519;-86
2023/03/20 06:49:22;;;;;;;32.40;16.60;;;;;;;5.40;86.78;101406.48;109425;1245;72126;-84
2023/03/20 06:51:50;;;;;;;36.60;17.90;;;;;;;5.48;87.05;101410.48;109389;1244;70857;-84
2023/03/20 06:54:26;;;;;;;34.40;16.70;;;;;;;5.57;86.46;101411.15;109308;1244;63842;-83
2023/03/20 06:56:55;;;;;;;35.40;18.50;;;;;;;5.54;86.75;101402.63;109326;1247;61512;-85
2023/03/20 06:59:24;;;;;;;36.60;17.10;;;;;;;5.64;86.55;101398.80;109322;1244;60785;-85
2023/03/20 07:01:56;;;;;;;31.80;17.10;;;;;;;5.74;86.42;101398.88;109284;1244;72446;-82
2023/03/20 07:04:26;;;;;;;31.20;16.50;;;;;;;5.90;85.65;101400.14;109480;1245;61394;-84
2023/03/20 07:06:58;;;;;;;35.40;17.40;;;;;;;5.85;85.18;101403.98;109285;1244;60232;-83
2023/03/20 07:09:27;;;;;;;30.10;16.30;;;;;;;5.87;85.71;101406.67;109283;1244;72800;-83
2023/03/20 07:11:56;;;;;;;33.70;16.20;;;;;;;6.01;85.13;101403.33;109268;1247;57549;-83
2023/03/20 07:14:25;;;;;;;31.80;17.80;;;;;;;6.00;85.51;101400.59;109345;1243;57601;-82
2023/03/20 07:16:57;;;;;;;32.70;17.20;;;;;;;6.19;85.15;101398.94;109253;1244;63039;-87
2023/03/20 07:19:26;;;;;;;34.60;17.40;;;;;;;6.23;84.02;101396.50;109340;1244;71412;-83
2023/03/20 07:22:01;;;;;;;35.70;18.10;;;;;;;6.34;84.09;101394.98;109498;1244;59793;-84
2023/03/20 07:24:34;;;;;;;32.00;17.60;;;;;;;6.31;84.02;101390.79;109622;1244;62545;-84
2023/03/20 07:27:03;;;;;;;35.50;18.40;;;;;;;6.25;84.56;101389.83;109488;1247;59455;-83
2023/03/20 07:29:33;;;;;;;33.30;16.70;;;;;;;6.19;84.61;101386.11;109290;1244;60927;-81
2023/03/20 07:32:03;;;;;;;33.90;16.80;;;;;;;6.33;84.47;101382.90;109155;1243;62902;-81
2023/03/20 07:34:52;;;;;;;29.80;17.00;;;;;;;6.44;83.81;101383.63;109194;1244;60971;-82
2023/03/20 07:37:21;;;;;;;32.80;15.90;;;;;;;6.46;83.73;101381.29;109148;1244;60057;-84
2023/03/20 07:40:04;;;;;;;41.20;18.60;;;;;;;6.39;83.87;101382.81;109346;1244;73880;-83
2023/03/20 07:42:35;;;;;;;33.60;17.30;;;;;;;6.54;83.30;101382.13;109256;1243;61679;-85
2023/03/20 07:45:17;;;;;;;34.10;16.20;;;;;;;6.48;83.37;101384.65;109436;1243;57667;-84
2023/03/20 07:47:47;;;;;;;36.10;17.60;;;;;;;6.52;83.47;101382.59;109421;1244;73546;-82
2023/03/20 07:50:16;;;;;;;27.20;15.80;;;;;;;6.49;83.70;101384.45;109349;1245;72312;-84
2023/03/20 07:52:50;;;;;;;34.90;16.00;;;;;;;6.56;83.78;101389.48;109245;1247;70278;-85
2023/03/20 07:55:21;;;;;;;34.30;16.90;;;;;;;6.68;83.33;101392.27;109238;1244;62441;-82
2023/03/20 07:57:50;;;;;;;35.90;16.90;;;;;;;6.75;82.86;101388.98;109359;1244;57511;-83
2023/03/20 08:00:19;;;;;;;36.50;19.00;;;;;;;6.57;83.47;101385.64;109150;1244;61318;-83
2023/03/20 08:02:48;;;;;;;35.30;16.90;;;;;;;6.57;83.88;101392.41;109150;1244;62733;-85
2023/03/20 08:05:17;;;;;;;37.00;18.50;;;;;;;6.62;83.86;101395.46;109094;1244;61872;-85
2023/03/20 08:07:46;;;;;;;30.60;15.20;;;;;;;6.81;83.32;101396.88;109140;1244;59555;-82
2023/03/20 08:10:16;;;;;;;27.50;15.30;;;;;;;6.86;82.76;101391.78;109339;1243;63482;-84
2023/03/20 08:12:44;;;;;;;27.90;14.80;;;;;;;6.86;82.82;101385.69;109478;1244;61204;-83
2023/03/20 08:15:13;;;;;;;29.40;15.20;;;;;;;6.93;82.58;101379.66;109418;1244;57658;-84
2023/03/20 08:17:44;;;;;;;31.60;15.30;;;;;;;7.15;81.86;101390.41;109400;1244;62344;-85
2023/03/20 08:20:15;;;;;;;29.20;15.50;;;;;;;7.09;81.63;101392.09;109328;1244;72301;-82
2023/03/20 08:22:44;;;;;;;32.10;15.10;;;;;;;7.35;81.23;101384.40;109163;1244;60381;-84
2023/03/20 08:25:13;;;;;;;29.60;15.60;;;;;;;7.34;81.13;101385.04;109217;1243;62965;-82
2023/03/20 08:27:42;;;;;;;32.50;15.80;;;;;;;6.90;82.16;101383.61;109157;1245;61363;-82
2023/03/20 08:30:12;;;;;;;26.90;15.70;;;;;;;6.81;82.76;101382.98;109259;1243;60240;-82
2023/03/20 08:32:41;;;;;;;36.50;16.50;;;;;;;6.91;82.59;101382.05;109298;1243;63796;-84
2023/03/20 08:35:10;;;;;;;30.30;15.90;;;;;;;7.22;81.58;101381.27;109368;1243;61712;-84
2023/03/20 08:37:57;;;;;;;29.70;16.70;;;;;;;7.32;80.86;101381.30;109399;1244;59314;-83
2023/03/20 08:40:26;;;;;;;30.40;14.80;;;;;;;7.49;80.42;101381.34;109403;1243;72780;-83
2023/03/20 08:42:55;;;;;;;29.10;14.70;;;;;;;7.68;79.75;101377.48;109382;1245;57596;-83
2023/03/20 08:45:25;;;;;;;32.50;16.70;;;;;;;7.95;78.83;101380.77;109385;1244;61318;-85
2023/03/20 08:47:53;;;;;;;29.10;16.90;;;;;;;7.35;80.41;101377.70;109510;1243;74465;-83
2023/03/20 08:50:22;;;;;;;29.50;16.00;;;;;;;7.27;81.21;101371.49;109509;1243;62210;-83
2023/03/20 08:52:51;;;;;;;31.50;17.70;;;;;;;7.34;81.00;101361.11;109477;1244;69829;-84
2023/03/20 08:55:20;;;;;;;31.30;16.80;;;;;;;7.54;80.65;101363.92;109446;1244;74350;-84
2023/03/20 08:57:49;;;;;;;35.70;17.40;;;;;;;7.73;80.03;101359.35;109363;1247;57524;-84
2023/03/20 09:00:19;;;;;;;39.40;18.60;;;;;;;8.03;78.80;101356.27;109375;1243;57814;-86
2023/03/20 09:02:48;;;;;;;37.30;18.90;;;;;;;8.20;77.80;101358.15;109401;1244;73592;-82
2023/03/20 09:05:17;;;;;;;32.90;17.40;;;;;;;8.21;77.57;101362.96;109391;1246;61998;-86
2023/03/20 09:07:46;;;;;;;39.90;17.90;;;;;;;8.39;77.50;101370.38;109518;1244;71369;-85
2023/03/20 09:10:14;;;;;;;42.60;19.60;;;;;;;8.56;76.20;101365.49;109482;1244;73448;-84
2023/03/20 09:12:43;;;;;;;40.60;19.20;;;;;;;8.87;75.82;101362.58;109428;1246;57321;-83
2023/03/20 09:15:12;;;;;;;36.40;18.10;;;;;;;9.22;74.58;101366.21;109341;1243;57280;-82
2023/03/20 09:17:41;;;;;;;41.50;21.30;;;;;;;8.93;74.77;101363.33;109443;1244;63039;-82
2023/03/20 09:20:10;;;;;;;42.40;19.30;;;;;;;9.05;74.61;101356.39;109298;1249;61718;-84
2023/03/20 09:22:41;;;;;;;41.90;19.70;;;;;;;9.44;73.48;101356.42;109461;1244;60028;-84
2023/03/20 09:25:11;;;;;;;37.00;18.80;;;;;;;9.84;71.74;101360.22;109427;1244;73928;-82
2023/03/20 09:27:40;;;;;;;39.30;19.90;;;;;;;9.72;71.57;101357.79;109302;1247;57151;-84
2023/03/20 09:30:11;;;;;;;43.30;20.40;;;;;;;9.66;71.60;101354.81;109421;1244;57618;-82
2023/03/20 09:32:40;;;;;;;45.30;20.00;;;;;;;9.52;71.91;101360.64;109360;1244;63025;-80
2023/03/20 09:35:09;;;;;;;42.80;21.40;;;;;;;9.81;71.05;101358.26;109389;1245;61730;-82
2023/03/20 09:37:38;;;;;;;41.70;20.00;;;;;;;10.06;70.90;101353.83;109455;1244;59288;-83
2023/03/20 09:40:08;;;;;;;40.40;21.70;;;;;;;10.37;69.06;101355.13;109326;1245;73041;-82
2023/03/20 09:42:40;;;;;;;32.40;17.00;;;;;;;9.95;69.98;101354.48;109418;1244;57394;-84
2023/03/20 09:45:38;;;;;;;34.50;20.10;;;;;;;10.53;67.07;101353.64;109332;1244;60445;-83
2023/03/20 09:48:45;;;;;;;32.80;16.90;;;;;;;9.92;69.49;101350.33;109318;1245;63404;-83
2023/03/20 09:51:46;;;;;;;40.90;19.70;;;;;;;9.99;69.07;101339.09;109400;1244;72278;-81
2023/03/20 09:54:28;;;;;;;39.80;21.40;;;;;;;10.00;69.90;101324.27;109234;1244;70526;-81
2023/03/20 09:57:00;;;;;;;38.70;20.80;;;;;;;9.60;70.99;101320.70;109378;1244;63723;-81
2023/03/20 09:59:33;;;;;;;36.90;20.50;;;;;;;9.61;71.20;101317.55;109323;1247;57540;-84
2023/03/20 10:02:23;;;;;;;42.20;21.80;;;;;;;9.99;70.22;101311.08;109340;1245;61329;-82
2023/03/20 10:04:54;;;;;;;39.80;20.70;;;;;;;10.27;68.78;101312.19;109328;1244;72511;-85
2023/03/20 10:07:25;;;;;;;36.80;20.50;;;;;;;10.27;68.75;101308.02;109273;1247;61506;-83
2023/03/20 10:09:54;;;;;;;36.10;19.10;;;;;;;10.26;68.57;101298.89;109348;1244;69676;-83
2023/03/20 10:12:47;;;;;;;33.90;19.30;;;;;;;10.50;68.10;101297.23;109292;1244;64339;-82
2023/03/20 10:15:36;;;;;;;;;;;;;;;11.04;66.71;101287.67;109124;1247;60577;-84
2023/03/20 10:18:15;;;;;;;31.70;18.30;;;;;;;11.08;65.70;101278.63;109121;1249;57762;-85
2023/03/20 10:21:26;;;;;;;34.50;18.80;;;;;;;11.02;65.66;101276.44;109226;1244;72848;-86
2023/03/20 10:24:06;;;;;;;35.40;19.80;;;;;;;11.23;64.98;101271.95;109232;1244;73278;-84
2023/03/20 10:26:36;;;;;;;30.90;18.80;;;;;;;10.91;65.69;101266.34;109142;1244;70234;-82
2023/03/20 10:29:58;;;;;;;33.10;17.40;;;;;;;11.18;65.14;101271.02;109151;1247;63819;-82
2023/03/20 10:32:44;;;;;;;36.50;18.80;;;;;;;11.82;63.03;101264.68;109166;1244;61284;-77
2023/03/20 10:35:47;;;;;;;25.00;14.40;;;;;;;12.09;62.15;101267.66;109107;1247;57704;-80
2023/03/20 10:38:39;;;;;;;33.80;15.90;;;;;;;12.03;61.66;101269.11;109039;1247;62971;-78
2023/03/20 10:41:15;;;;;;;30.20;17.10;;;;;;;12.38;60.23;101265.79;109153;1245;61696;-77
2023/03/20 10:43:47;;;;;;;32.30;17.40;;;;;;;11.69;62.05;101258.69;109150;1245;60012;-81
2023/03/20 10:46:24;;;;;;;34.10;18.10;;;;;;;11.33;63.40;101258.20;109158;1247;62559;-75
2023/03/20 10:49:59;;;;;;;36.00;17.40;;;;;;;11.55;62.81;101252.20;109076;1247;57684;-76
2023/03/20 10:52:34;;;;;;;33.40;18.90;;;;;;;11.80;62.21;101247.67;109157;1244;57168;-74
2023/03/20 10:57:56;;;;;;;34.40;18.20;;;;;;;13.34;57.99;101232.42;104017;1277;601804;-76
2023/03/20 11:00:26;;;;;;;31.70;16.90;;;;;;;13.53;56.81;101228.30;106208;1258;57432;-75
2023/03/20 11:02:54;;;;;;;33.00;18.00;;;;;;;12.74;57.98;101231.55;106260;1256;61116;-79
2023/03/20 11:05:32;;;;;;;32.30;18.60;;;;;;;12.83;58.35;101225.50;106566;1261;71280;-79
2023/03/20 11:08:07;;;;;;;33.70;18.40;;;;;;;12.81;58.20;101221.30;106620;1254;72041;-79
2023/03/20 11:10:38;;;;;;;34.80;18.90;;;;;;;13.09;57.70;101217.25;106265;1259;585983;-77
2023/03/20 11:13:30;;;;;;;37.60;19.00;;;;;;;13.80;56.79;101212.55;106823;1257;73138;-79
2023/03/20 11:16:31;;;;;;;32.50;18.40;;;;;;;13.50;56.00;101210.67;106864;1252;58937;-78
2023/03/20 11:19:10;;;;;;;27.10;17.00;;;;;;;13.10;56.85;101210.73;106754;1252;60361;-80
2023/03/20 11:21:55;;;;;;;32.80;18.60;;;;;;;13.14;56.76;101215.01;106810;1257;60651;-83
2023/03/20 11:24:40;;;;;;;33.80;18.70;;;;;;;13.22;56.51;101207.77;106657;1256;72053;-85
2023/03/20 11:27:18;;;;;;;27.70;17.80;;;;;;;13.43;56.44;101197.91;106806;1260;60345;-78
2023/03/20 11:29:50;;;;;;;30.40;17.70;;;;;;;14.07;54.61;101190.33;106894;1257;73256;-81
2023/03/20 11:32:31;;;;;;;31.20;17.70;;;;;;;14.19;53.14;101193.20;106538;1254;61767;-81
2023/03/20 11:35:24;;;;;;;29.10;17.50;;;;;;;13.65;53.52;101194.45;107101;1250;60555;-80
2023/03/20 11:38:16;;;;;;;29.90;14.70;;;;;;;13.09;53.94;101205.52;106711;1251;62682;-76
2023/03/20 11:40:51;;;;;;;30.80;17.40;;;;;;;13.10;53.88;101201.66;106688;1252;60851;-79
2023/03/20 11:43:25;;;;;;;27.90;16.80;;;;;;;12.96;54.09;101202.86;106767;1260;69691;-78
2023/03/20 11:46:03;;;;;;;29.30;17.40;;;;;;;13.49;52.51;101203.80;106649;1247;74229;-80
2023/03/20 11:48:38;;;;;;;27.00;14.70;;;;;;;13.54;52.21;101200.61;106693;1248;60836;-83
2023/03/20 11:51:18;;;;;;;27.50;16.30;;;;;;;13.31;52.41;101203.07;106621;1251;58111;-83
2023/03/20 11:53:46;;;;;;;27.50;15.10;;;;;;;13.03;53.11;101202.00;107529;1248;72658;-80
2023/03/20 11:56:25;;;;;;;29.40;16.20;;;;;;;12.96;53.44;101202.16;107222;1257;70825;-75
2023/03/20 11:58:57;;;;;;;31.10;17.90;;;;;;;12.85;54.03;101202.61;106812;1254;59697;-74
2023/03/20 12:01:35;;;;;;;27.80;17.10;;;;;;;12.74;54.73;101205.88;106973;1253;73882;-75